Latest Weather Observations for Melbourne Airport

IDV60901

Issued at 3:11 pm EST Monday 27 May 2019 (issued every 10 minutes, with the page automatically refreshed every 10 minutes)

About weather observations | Map of Melbourne area stations | Latest observations for Melbourne area | Other Formats
Station Details ID: 086282 Name: MELBOURNE AIRPORT Lat: -37.67 Lon: 144.83 Height: 113.4 m
Data from the previous 72 hours. | See also: Recent months at Melbourne Airport
Date/Time
EST
Temp
°C
App
Temp
°C
Dew
Point
°C
Rel
Hum
%
Delta-T
°C
Wind Press
QNH
hPa
Press
MSL
hPa
Rain since
9am
mm
Dir  Spd
km/h
Gust
km/h
Spd
kts
Gust
kts
27/03:00pm 12.5 2.4 3.6 54 4.0 WSW 46 59 25 32 1010.1 1010.1 0.2
27/02:30pm 12.2 0.9 3.5 55 3.9 WSW 52 69 28 37 1009.8 1009.8 0.2
27/02:23pm 12.7 2.2 3.6 54 4.1 WSW 48 69 26 37 1009.6 1009.6 0.2
27/02:00pm 12.7 2.6 3.9 55 4.0 WSW 46 61 25 33 1009.4 1009.4 0.2
27/01:51pm 12.3 3.6 3.9 56 3.8 WSW 39 57 21 31 1009.1 1009.1 0.2
27/01:30pm 12.1 2.7 4.2 58 3.6 WSW 43 59 23 32 1009.0 1009.0 0.2
27/01:22pm 12.6 3.1 3.8 55 4.0 WSW 43 61 23 33 1009.0 1009.0 0.2
27/01:00pm 11.6 2.4 3.5 57 3.6 WSW 41 56 22 30 1009.0 1009.0 0.2
27/12:31pm 11.6 2.5 3.8 59 3.5 WSW 41 59 22 32 1008.9 1008.9 0.2
27/12:30pm 11.5 2.8 4.0 60 3.4 WSW 39 56 21 30 1008.9 1008.9 0.2
27/12:03pm 10.9 0.8 4.0 62 3.1 WSW 46 65 25 35 1008.8 1008.8 0.2
27/12:00pm 10.6 0.1 3.6 62 3.1 W 48 65 26 35 1008.8 1008.8 0.2
27/11:52am 10.7 0.7 4.3 64 2.9 W 46 65 25 35 1008.6 1008.6 0.2
27/11:30am 10.4 -0.4 3.9 64 2.9 W 50 63 27 34 1008.8 1008.8 0.2
27/11:22am 9.9 0.4 3.8 66 2.7 W 43 61 23 33 1008.9 1008.9 0.2
27/11:00am 9.0 -0.8 3.5 68 2.4 W 44 56 24 30 1009.1 1009.1 0.2
27/10:30am 7.6 -1.6 3.4 75 1.8 W 41 52 22 28 1009.0 1009.0 0.2
27/10:00am 7.3 -2.6 2.8 73 1.9 W 44 57 24 31 1009.0 1009.0 0.0
27/09:30am 8.1 -1.3 2.1 66 2.5 W 41 59 22 32 1008.5 1008.5 0.0
27/09:00am 7.4 -1.3 2.1 69 2.2 W 37 52 20 28 1008.5 1008.5 6.0
27/08:43am 7.5 -1.2 1.7 66 2.4 W 37 56 20 30 1008.4 1008.4 6.0
27/08:30am 7.4 -0.4 1.5 66 2.4 W 32 48 17 26 1008.2 1008.2 6.0
27/08:00am 6.8 -1.0 1.7 70 2.1 W 32 39 17 21 1008.0 1008.0 6.0
27/07:30am 6.1 -1.4 1.1 70 2.0 W 30 39 16 21 1007.7 1007.7 6.0
27/07:00am 6.4 -0.7 1.2 69 2.1 W 28 43 15 23 1007.3 1007.3 6.0
27/06:30am 6.9 -1.2 0.9 65 2.4 W 33 43 18 23 1006.8 1006.8 6.0
27/06:00am 6.7 -1.2 1.3 68 2.2 W 32 43 17 23 1006.7 1006.7 6.0
27/05:30am 6.8 -0.2 1.9 71 2.0 W 28 35 15 19 1006.5 1006.5 6.0
27/05:00am 6.7 1.9 2.6 75 1.7 WNW 17 26 9 14 1006.2 1006.2 6.0
27/04:30am 7.1 0.2 2.3 71 2.0 WSW 28 35 15 19 1006.4 1006.4 6.0
27/04:00am 7.6 2.4 3.4 75 1.8 W 20 30 11 16 1006.8 1006.8 6.0
27/03:30am 7.8 2.6 3.4 74 1.9 W 20 30 11 16 1006.8 1006.8 6.0
27/03:00am 7.5 2.5 3.6 76 1.7 W 19 26 10 14 1006.8 1006.8 6.0
27/02:30am 7.6 1.2 3.4 75 1.8 W 26 33 14 18 1006.8 1006.8 6.0
27/02:00am 8.3 1.5 3.2 70 2.2 W 28 39 15 21 1006.6 1006.6 6.0
27/01:30am 9.3 5.2 4.1 70 2.3 WNW 15 19 8 10 1006.6 1006.6 6.0
27/01:00am 9.1 4.2 4.1 71 2.2 WNW 19 28 10 15 1007.2 1007.2 6.0
27/12:30am 9.5 3.7 4.6 71 2.2 WNW 24 32 13 17 1007.0 1007.0 6.0
27/12:00am 9.1 4.7 4.9 75 1.9 WNW 17 22 9 12 1006.6 1006.6 6.0
 
Date/Time
EST
Temp
°C
App
Temp
°C
Dew
Point
°C
Rel
Hum
%
Delta-T
°C
Wind Press
QNH
hPa
Press
MSL
hPa
Rain since
9am
mm
Dir  Spd
km/h
Gust
km/h
Spd
kts
Gust
kts
26/11:30pm 9.1 4.3 4.9 75 1.9 NW 19 26 10 14 1006.8 1006.8 6.0
26/11:00pm 9.2 5.0 5.5 78 1.7 NW 17 26 9 14 1007.0 1007.0 6.0
26/10:30pm 9.4 5.0 6.4 81 1.4 NW 19 26 10 14 1007.3 1007.3 6.0
26/10:00pm 8.7 3.9 7.4 91 0.6 W 22 30 12 16 1008.2 1008.2 5.4
26/09:40pm 8.5 2.2 7.2 91 0.6 WSW 30 39 16 21 1008.5 1008.5 4.6
26/09:30pm 8.5 0.8 7.2 91 0.6 WSW 37 52 20 28 1008.2 1008.2 4.0
26/09:16pm 9.0 3.0 7.1 88 0.9 W 28 59 15 32 1008.1 1008.1 2.0
26/09:00pm 12.0 6.6 8.2 77 1.9 NW 26 48 14 26 1007.7 1007.7 0.2
26/08:54pm 12.8 7.2 7.1 68 2.8 NNW 26 48 14 26 1007.6 1007.6 0.0
26/08:30pm 12.3 6.4 7.6 73 2.3 N 28 37 15 20 1007.3 1007.3 0.0
26/08:00pm 12.4 7.2 7.3 71 2.5 NNW 24 37 13 20 1007.8 1007.8 0.0
26/07:30pm 12.4 6.4 7.0 69 2.6 NNW 28 35 15 19 1007.8 1007.8 0.0
26/07:00pm 12.3 5.6 7.4 72 2.4 N 32 43 17 23 1007.7 1007.7 0.0
26/06:30pm 12.0 4.4 7.7 75 2.1 N 37 48 20 26 1007.9 1007.9 0.0
26/06:00pm 12.2 4.5 7.3 72 2.4 N 37 52 20 28 1008.2 1008.2 0.0
26/05:30pm 12.0 4.6 6.8 70 2.5 N 35 46 19 25 1008.2 1008.2 0.0
26/05:00pm 12.4 5.0 6.8 68 2.7 N 35 50 19 27 1008.5 1008.5 0.0
26/04:30pm 12.5 5.1 6.7 68 2.8 N 35 52 19 28 1009.0 1009.0 0.0
26/04:00pm 12.7 5.2 6.2 64 3.1 NNW 35 56 19 30 1009.1 1009.1 0.0
26/03:30pm 13.1 5.4 5.5 60 3.6 N 35 46 19 25 1010.0 1010.0 0.0
26/03:00pm 13.8 6.9 4.5 53 4.3 NNW 30 41 16 22 1010.3 1010.3 0.0
26/02:30pm 14.1 7.9 4.1 51 4.6 NNW 26 41 14 22 1010.8 1010.8 0.0
26/02:00pm 14.0 6.9 3.7 50 4.7 NW 30 43 16 23 1011.2 1011.2 0.0
26/01:30pm 13.7 7.3 3.3 49 4.7 NW 26 37 14 20 1011.7 1011.7 0.0
26/01:00pm 13.7 8.3 2.7 47 4.9 NW 20 35 11 19 1012.2 1012.2 0.0
26/12:30pm 13.0 6.4 2.0 47 4.8 NW 26 35 14 19 1012.8 1012.8 0.0
26/12:00pm 12.9 6.0 2.7 50 4.5 NW 28 39 15 21 1013.5 1013.5 0.0
26/11:30am 13.4 7.0 3.4 50 4.5 NW 26 33 14 18 1013.9 1013.9 0.0
26/11:00am 12.8 7.2 3.2 52 4.3 NW 22 33 12 18 1014.2 1014.2 0.0
26/10:30am 12.3 5.9 3.3 54 4.0 NW 26 35 14 19 1014.6 1014.6 0.0
26/10:00am 11.9 7.0 3.9 58 3.6 NNW 19 28 10 15 1014.7 1014.7 0.0
26/09:30am 11.2 6.1 4.1 61 3.2 NNW 20 28 11 15 1014.8 1014.8 0.0
26/09:00am 10.3 5.4 5.0 69 2.4 N 20 26 11 14 1014.7 1014.7 9.6
26/08:30am 9.0 4.6 4.5 73 2.0 N 17 22 9 12 1014.6 1014.6 9.6
26/08:00am 7.8 3.2 3.9 76 1.7 N 17 20 9 11 1014.6 1014.6 9.6
26/07:30am 8.5 3.9 3.7 72 2.1 NW 17 24 9 13 1014.4 1014.4 9.6
26/07:00am 7.6 3.0 3.7 76 1.7 NNW 17 20 9 11 1014.2 1014.2 9.6
26/06:30am 8.1 3.9 4.0 75 1.8 NW 15 19 8 10 1013.9 1013.9 9.6
26/06:00am 7.8 3.6 3.9 76 1.7 WNW 15 19 8 10 1013.6 1013.6 9.6
26/05:30am 8.5 4.4 4.2 74 1.9 NW 15 19 8 10 1013.6 1013.6 9.6
26/05:00am 8.7 4.2 4.4 74 1.9 NNW 17 22 9 12 1013.6 1013.6 9.6
26/04:30am 8.3 4.7 4.9 79 1.5 N 13 15 7 8 1013.5 1013.5 9.6
26/04:00am 8.7 5.4 4.7 76 1.8 NW 11 17 6 9 1013.5 1013.5 9.6
26/03:30am 9.1 5.1 5.1 76 1.8 WNW 15 24 8 13 1013.4 1013.4 9.6
26/03:00am 9.5 5.2 5.1 74 2.0 NW 17 24 9 13 1013.4 1013.4 9.6
26/02:30am 9.3 6.5 5.1 75 1.9 N 9 11 5 6 1013.5 1013.5 9.6
26/02:00am 9.4 6.6 5.2 75 1.9 NNW 9 13 5 7 1013.4 1013.4 9.6
26/01:30am 9.5 6.0 5.3 75 1.9 W 13 19 7 10 1013.3 1013.3 9.6
26/01:00am 10.3 5.5 5.5 72 2.2 W 20 28 11 15 1013.1 1013.1 9.6
26/12:30am 10.7 6.0 6.0 73 2.2 W 20 30 11 16 1013.0 1013.0 9.6
26/12:00am 10.8 6.2 6.3 74 2.1 W 20 26 11 14 1013.0 1013.0 9.6
 
Date/Time
EST
Temp
°C
App
Temp
°C
Dew
Point
°C
Rel
Hum
%
Delta-T
°C
Wind Press
QNH
hPa
Press
MSL
hPa
Rain since
9am
mm
Dir  Spd
km/h
Gust
km/h
Spd
kts
Gust
kts
25/11:30pm 11.2 4.4 6.8 74 2.1 W 32 43 17 23 1012.7 1012.7 9.6
25/11:00pm 11.7 5.0 7.4 75 2.1 W 32 41 17 22 1012.3 1012.3 9.6
25/10:30pm 11.6 8.2 9.2 85 1.2 W 17 24 9 13 1012.1 1012.1 9.6
25/10:00pm 12.2 7.9 9.2 82 1.5 W 22 32 12 17 1012.2 1012.2 9.6
25/09:30pm 12.4 9.7 10.5 88 1.0 WNW 15 20 8 11 1012.4 1012.4 9.6
25/09:00pm 11.9 10.2 11.1 95 0.4 NW 11 13 6 7 1012.1 1012.1 9.6
25/08:30pm 12.2 10.5 11.1 93 0.6 NW 11 13 6 7 1011.9 1011.9 9.6
25/08:22pm 12.2 10.1 11.1 93 0.6 WNW 13 17 7 9 1012.0 1012.0 9.6
25/08:00pm 12.5 9.6 11.0 90 0.8 WNW 17 24 9 13 1012.1 1012.1 8.0
25/07:30pm 12.6 9.2 10.7 88 1.0 W 19 26 10 14 1011.9 1011.9 6.6
25/07:00pm 12.4 10.8 10.1 86 1.2 NNW 9 13 5 7 1011.5 1011.5 6.6
25/06:30pm 12.6 9.3 9.7 82 1.5 NW 17 22 9 12 1011.4 1011.4 6.6
25/06:11pm 12.2 6.5 9.7 85 1.3 WNW 30 39 16 21 1011.4 1011.4 6.4
25/06:00pm 11.8 5.1 9.6 86 1.1 W 35 65 19 35 1011.5 1011.5 5.6
25/05:53pm 12.1 5.8 8.9 81 1.6 WNW 32 65 17 35 1011.7 1011.7 2.4
25/05:52pm 12.6 7.2 9.5 81 1.6 WNW 28 59 15 32 1011.7 1011.7 1.4
25/05:50pm 15.3 10.8 10.0 70 2.8 NW 24 37 13 20 1011.4 1011.4 0.0
25/05:30pm 17.0 12.9 7.8 54 4.7 NW 19 30 10 16 1010.7 1010.7 0.0
25/05:00pm 17.0 12.0 8.0 55 4.6 NW 24 37 13 20 1010.6 1010.6 0.0
25/04:30pm 17.5 12.5 7.9 53 4.9 NNW 24 33 13 18 1010.4 1010.4 0.0
25/04:00pm 17.6 12.9 7.6 52 5.1 NNW 22 33 12 18 1010.5 1010.5 0.0
25/03:30pm 17.5 11.2 7.4 51 5.1 NNW 30 43 16 23 1010.1 1010.1 0.0
25/03:00pm 18.0 12.5 7.4 50 5.4 NW 26 37 14 20 1010.7 1010.7 0.0
25/02:30pm 17.6 11.3 7.3 51 5.2 NW 30 48 16 26 1011.0 1011.0 0.0
25/02:14pm 17.8 10.8 6.8 48 5.5 NW 33 54 18 29 1011.0 1011.0 0.0
25/02:00pm 17.6 11.6 7.1 50 5.3 NW 28 44 15 24 1011.2 1011.2 0.0
25/01:30pm 17.7 10.3 6.9 49 5.4 NW 35 46 19 25 1011.5 1011.5 0.0
25/01:14pm 17.7 11.1 6.2 47 5.7 NW 30 48 16 26 1011.6 1011.6 0.0
25/01:00pm 17.5 11.0 6.4 48 5.5 NW 30 41 16 22 1011.8 1011.8 0.0
25/12:30pm 18.2 12.1 6.4 46 5.9 NW 28 39 15 21 1012.1 1012.1 0.0
25/12:00pm 18.2 12.0 6.1 45 6.0 NW 28 37 15 20 1012.5 1012.5 0.0
25/11:30am 18.1 11.6 6.7 47 5.7 NW 30 41 16 22 1012.9 1012.9 0.0
25/11:00am 17.7 12.1 7.2 50 5.3 NW 26 41 14 22 1013.3 1013.3 0.0
25/10:30am 16.9 11.8 7.6 54 4.7 NW 24 33 13 18 1013.5 1013.5 0.0
25/10:00am 16.4 12.1 7.9 57 4.3 NW 20 28 11 15 1013.8 1013.8 0.0
25/09:30am 15.6 11.0 8.3 62 3.7 NNW 22 30 12 16 1014.0 1014.0 0.0
25/09:00am 14.1 12.2 9.0 71 2.6 SSW 9 24 5 13 1014.3 1014.3 0.0
25/08:30am 13.5 10.9 9.2 75 2.2 NNW 13 20 7 11 1014.0 1014.0 0.0
25/08:00am 12.3 7.7 9.6 83 1.4 N 24 33 13 18 1013.6 1013.6 0.0
25/07:30am 11.6 6.2 9.6 87 1.0 N 28 32 15 17 1013.5 1013.5 0.0
25/07:00am 11.5 6.9 9.7 89 0.9 N 24 30 13 16 1013.7 1013.7 0.0
25/06:30am 12.2 7.7 10.1 87 1.1 N 24 28 13 15 1013.7 1013.7 0.0
25/06:00am 12.3 7.8 10.0 86 1.2 N 24 33 13 18 1013.6 1013.6 0.0
25/05:30am 12.4 7.1 9.9 85 1.3 N 28 35 15 19 1013.6 1013.6 0.0
25/05:00am 13.2 9.6 9.9 80 1.7 N 19 22 10 12 1013.3 1013.3 0.0
25/04:30am 13.4 11.0 9.9 79 1.8 NNW 13 15 7 8 1013.4 1013.4 0.0
25/04:00am 13.6 10.1 10.1 79 1.8 NNW 19 22 10 12 1013.6 1013.6 0.0
25/03:30am 13.6 9.5 10.1 79 1.8 N 22 28 12 15 1013.7 1013.7 0.0
25/03:00am 13.7 9.5 9.8 77 2.0 N 22 28 12 15 1014.0 1014.0 0.0
25/02:30am 13.8 8.5 9.9 77 2.0 N 28 33 15 18 1014.1 1014.1 0.0
25/02:00am 13.6 8.3 9.7 77 2.0 N 28 32 15 17 1014.1 1014.1 0.0
25/01:30am 13.7 9.5 9.8 77 2.0 N 22 28 12 15 1014.5 1014.5 0.0
25/01:00am 14.4 10.2 9.8 74 2.4 N 22 28 12 15 1014.6 1014.6 0.0
25/12:30am 14.4 9.5 9.8 74 2.4 N 26 35 14 19 1014.7 1014.7 0.0
25/12:00am 14.3 9.3 9.5 73 2.5 N 26 30 14 16 1014.8 1014.8 0.0
 
Date/Time
EST
Temp
°C
App
Temp
°C
Dew
Point
°C
Rel
Hum
%
Delta-T
°C
Wind Press
QNH
hPa
Press
MSL
hPa
Rain since
9am
mm
Dir  Spd
km/h
Gust
km/h
Spd
kts
Gust
kts
24/11:30pm 15.1 9.5 8.9 66 3.2 N 28 35 15 19 1015.0 1015.0 0.0
24/11:00pm 15.0 9.4 8.7 66 3.2 N 28 37 15 20 1015.1 1015.1 0.0
24/10:30pm 14.9 8.5 8.6 66 3.2 N 32 43 17 23 1015.2 1015.2 0.0
24/10:00pm 15.4 7.7 8.5 63 3.5 N 39 57 21 31 1015.4 1015.4 0.0
24/09:52pm 15.2 7.8 8.5 64 3.4 N 37 57 20 31 1015.3 1015.3 0.0
24/09:30pm 15.4 7.6 8.3 62 3.6 NNW 39 52 21 28 1015.3 1015.3 0.0
24/09:00pm 15.2 6.1 8.3 63 3.5 N 46 61 25 33 1014.7 1014.7 0.0
24/08:32pm 15.4 6.8 8.1 61 3.7 N 43 61 23 33 1014.9 1014.9 0.0
24/08:30pm 15.5 6.9 8.0 61 3.8 N 43 59 23 32 1014.8 1014.8 0.0
24/08:00pm 15.7 5.7 7.7 59 4.0 N 50 69 27 37 1015.1 1015.1 0.0
24/07:53pm 15.8 5.7 7.6 58 4.1 N 50 69 27 37 1014.9 1014.9 0.0
24/07:30pm 15.6 6.4 8.1 61 3.8 N 46 57 25 31 1015.1 1015.1 0.0
24/07:00pm 15.5 7.6 9.3 66 3.2 N 41 54 22 29 1015.2 1015.2 0.0
24/06:30pm 15.3 8.0 8.9 65 3.3 N 37 48 20 26 1014.8 1014.8 0.0
24/06:00pm 15.9 8.6 8.7 62 3.7 N 37 50 20 27 1014.8 1014.8 0.0
24/05:30pm 15.8 7.3 8.6 62 3.7 N 43 52 23 28 1014.6 1014.6 0.0
24/05:00pm 15.7 7.9 8.2 61 3.8 N 39 50 21 27 1014.4 1014.4 0.0
24/04:30pm 15.5 7.0 8.4 62 3.6 N 43 61 23 33 1014.6 1014.6 0.0
24/04:00pm 15.9 5.9 8.0 59 4.0 N 50 63 27 34 1014.7 1014.7 0.0
24/03:30pm 17.5 8.2 7.7 52 5.0 N 46 57 25 31 1014.4 1014.4 0.0

Latest Capital City Observations: Canberra | Sydney | Melbourne | Brisbane | Adelaide | Perth | Hobart | Darwin

Other formats

Comma delimited format used in spreadsheet applications
http://www.bom.gov.au/fwo/IDV60901/IDV60901.94866.axf

JavaScript Object Notation format (JSON) in row-major order
http://www.bom.gov.au/fwo/IDV60901/IDV60901.94866.json

Data quality

Most of these data are generated automatically and are frequently updated. Quality checks on data are not normally performed. It is possible for incorrect values to appear. Refer to information at About Latest Weather Observations and please check the disclaimer before using these data.